Muscle Shoals, Alabama
Current Conditions -  °F | °C
As of 2:53 PM on Tuesday 27 Jan 2015 (Local Time) from KMSL Reporting Station
Clear Clear  
Wind Chill: 54°   Ceiling: Unl
Heat Index: 54°   Visibility: 10mi
Dew Point: 30°   Wind: 8mph
Humidity: 40%   Direction: 340°NNW
Pressure: 30.08"   Gusts: NA
Location:  34.74°N, 87.67°W
Report Text: KMSL 272053Z AUTO 34007KT 10SM CLR 12/M01 A3008 RMK AO2 SLP186 T01221011 55001
Loading
Personal Weather Stations






























Interactive Weather Map New forecast layout! Learn more

10-Day Weather Forecast

Advertisements
Track Severe Weather on mobile